sensor_id;sensor_type;location;lat;lon;timestamp;P1;durP1;ratioP1;P2;durP2;ratioP2
57842;SDS011;43673;51.058;3.734;2022-10-17T00:01:04;18.65;;;12.27;;
57842;SDS011;43673;51.058;3.734;2022-10-17T00:03:31;20.88;;;12.05;;
57842;SDS011;43673;51.058;3.734;2022-10-17T00:05:57;12.85;;;11.45;;
57842;SDS011;43673;51.058;3.734;2022-10-17T00:08:23;17.85;;;12.63;;
57842;SDS011;43673;51.058;3.734;2022-10-17T00:10:59;14.18;;;11.48;;
57842;SDS011;43673;51.058;3.734;2022-10-17T00:13:28;19.50;;;11.38;;
57842;SDS011;43673;51.058;3.734;2022-10-17T00:15:55;15.68;;;11.48;;
57842;SDS011;43673;51.058;3.734;2022-10-17T00:18:20;16.13;;;10.35;;
57842;SDS011;43673;51.058;3.734;2022-10-17T00:20:46;16.33;;;11.52;;
57842;SDS011;43673;51.058;3.734;2022-10-17T00:23:12;14.05;;;12.18;;
57842;SDS011;43673;51.058;3.734;2022-10-17T00:25:38;17.67;;;10.70;;
57842;SDS011;43673;51.058;3.734;2022-10-17T00:28:05;16.42;;;11.45;;
57842;SDS011;43673;51.058;3.734;2022-10-17T00:30:32;12.70;;;10.05;;
57842;SDS011;43673;51.058;3.734;2022-10-17T00:32:58;15.95;;;10.40;;
57842;SDS011;43673;51.058;3.734;2022-10-17T00:35:24;14.93;;;10.50;;
57842;SDS011;43673;51.058;3.734;2022-10-17T00:37:49;13.13;;;10.35;;
57842;SDS011;43673;51.058;3.734;2022-10-17T00:40:15;14.88;;;11.45;;
57842;SDS011;43673;51.058;3.734;2022-10-17T00:42:41;12.95;;;9.88;;
57842;SDS011;43673;51.058;3.734;2022-10-17T00:45:11;11.95;;;10.18;;
57842;SDS011;43673;51.058;3.734;2022-10-17T00:47:55;12.05;;;10.38;;
57842;SDS011;43673;51.058;3.734;2022-10-17T00:50:25;15.18;;;10.05;;
57842;SDS011;43673;51.058;3.734;2022-10-17T00:52:52;14.98;;;9.63;;
57842;SDS011;43673;51.058;3.734;2022-10-17T00:55:24;16.45;;;9.80;;
57842;SDS011;43673;51.058;3.734;2022-10-17T00:57:55;12.93;;;9.73;;
57842;SDS011;43673;51.058;3.734;2022-10-17T01:00:27;15.57;;;9.85;;
57842;SDS011;43673;51.058;3.734;2022-10-17T01:02:53;13.38;;;9.43;;
57842;SDS011;43673;51.058;3.734;2022-10-17T01:05:18;15.32;;;9.90;;
57842;SDS011;43673;51.058;3.734;2022-10-17T01:07:45;9.90;;;8.20;;
57842;SDS011;43673;51.058;3.734;2022-10-17T01:10:13;10.90;;;8.73;;
57842;SDS011;43673;51.058;3.734;2022-10-17T01:13:04;12.63;;;8.57;;
57842;SDS011;43673;51.058;3.734;2022-10-17T01:16:02;10.90;;;8.60;;
57842;SDS011;43673;51.058;3.734;2022-10-17T01:43:28;11.73;;;7.93;;
57842;SDS011;43673;51.058;3.734;2022-10-17T01:50:42;12.75;;;8.65;;
57842;SDS011;43673;51.058;3.734;2022-10-17T04:01:51;23.92;;;14.73;;
57842;SDS011;43673;51.058;3.734;2022-10-17T04:05:05;14.40;;;10.23;;
57842;SDS011;43673;51.058;3.734;2022-10-17T04:34:42;18.33;;;12.52;;
57842;SDS011;43673;51.058;3.734;2022-10-17T05:09:38;34.47;;;17.67;;
57842;SDS011;43673;51.058;3.734;2022-10-17T05:15:45;17.83;;;11.32;;
57842;SDS011;43673;51.058;3.734;2022-10-17T05:18:53;20.10;;;9.65;;
57842;SDS011;43673;51.058;3.734;2022-10-17T05:21:34;22.10;;;13.80;;
57842;SDS011;43673;51.058;3.734;2022-10-17T05:27:40;127.65;;;64.75;;
57842;SDS011;43673;51.058;3.734;2022-10-17T05:30:49;82.30;;;44.60;;
57842;SDS011;43673;51.058;3.734;2022-10-17T05:33:18;23.30;;;15.25;;
57842;SDS011;43673;51.058;3.734;2022-10-17T05:35:46;17.70;;;13.07;;
57842;SDS011;43673;51.058;3.734;2022-10-17T05:38:22;155.35;;;76.45;;
57842;SDS011;43673;51.058;3.734;2022-10-17T05:40:47;180.85;;;90.93;;
57842;SDS011;43673;51.058;3.734;2022-10-17T05:43:16;112.97;;;59.40;;
57842;SDS011;43673;51.058;3.734;2022-10-17T05:45:53;86.18;;;44.40;;
57842;SDS011;43673;51.058;3.734;2022-10-17T05:48:41;30.67;;;17.88;;
57842;SDS011;43673;51.058;3.734;2022-10-17T05:51:19;19.48;;;13.43;;
57842;SDS011;43673;51.058;3.734;2022-10-17T05:53:56;27.87;;;16.57;;
57842;SDS011;43673;51.058;3.734;2022-10-17T05:56:35;34.42;;;19.90;;
57842;SDS011;43673;51.058;3.734;2022-10-17T05:59:07;21.30;;;12.90;;
57842;SDS011;43673;51.058;3.734;2022-10-17T06:01:32;18.10;;;11.10;;
57842;SDS011;43673;51.058;3.734;2022-10-17T06:03:58;13.35;;;9.25;;
57842;SDS011;43673;51.058;3.734;2022-10-17T06:06:27;116.15;;;55.08;;
57842;SDS011;43673;51.058;3.734;2022-10-17T06:08:52;25.58;;;14.80;;
57842;SDS011;43673;51.058;3.734;2022-10-17T06:11:18;16.85;;;11.48;;
57842;SDS011;43673;51.058;3.734;2022-10-17T06:13:44;14.60;;;8.65;;
57842;SDS011;43673;51.058;3.734;2022-10-17T06:16:10;17.00;;;10.35;;
57842;SDS011;43673;51.058;3.734;2022-10-17T06:18:35;16.38;;;10.25;;
57842;SDS011;43673;51.058;3.734;2022-10-17T06:21:02;15.75;;;9.80;;
57842;SDS011;43673;51.058;3.734;2022-10-17T06:23:32;19.15;;;10.27;;
57842;SDS011;43673;51.058;3.734;2022-10-17T06:26:02;13.25;;;9.20;;
57842;SDS011;43673;51.058;3.734;2022-10-17T06:28:29;19.83;;;10.13;;
57842;SDS011;43673;51.058;3.734;2022-10-17T06:30:55;20.65;;;9.88;;
57842;SDS011;43673;51.058;3.734;2022-10-17T06:33:21;14.55;;;9.63;;
57842;SDS011;43673;51.058;3.734;2022-10-17T06:35:55;17.35;;;9.73;;
57842;SDS011;43673;51.058;3.734;2022-10-17T06:38:22;16.08;;;9.30;;
57842;SDS011;43673;51.058;3.734;2022-10-17T06:40:48;17.27;;;9.18;;
57842;SDS011;43673;51.058;3.734;2022-10-17T06:43:15;17.88;;;9.65;;
57842;SDS011;43673;51.058;3.734;2022-10-17T06:45:41;16.00;;;10.10;;
57842;SDS011;43673;51.058;3.734;2022-10-17T06:48:07;13.15;;;9.82;;
57842;SDS011;43673;51.058;3.734;2022-10-17T06:50:33;13.93;;;9.88;;
57842;SDS011;43673;51.058;3.734;2022-10-17T06:52:59;11.18;;;8.57;;
57842;SDS011;43673;51.058;3.734;2022-10-17T06:55:25;13.27;;;9.43;;
57842;SDS011;43673;51.058;3.734;2022-10-17T07:00:26;15.13;;;9.30;;
57842;SDS011;43673;51.058;3.734;2022-10-17T07:02:52;17.67;;;9.45;;
57842;SDS011;43673;51.058;3.734;2022-10-17T07:05:18;16.35;;;10.40;;
57842;SDS011;43673;51.058;3.734;2022-10-17T07:07:44;14.45;;;9.27;;
57842;SDS011;43673;51.058;3.734;2022-10-17T07:10:09;16.90;;;9.52;;
57842;SDS011;43673;51.058;3.734;2022-10-17T07:12:36;11.15;;;8.95;;
57842;SDS011;43673;51.058;3.734;2022-10-17T07:15:02;19.80;;;9.10;;
57842;SDS011;43673;51.058;3.734;2022-10-17T07:17:29;16.63;;;9.52;;
57842;SDS011;43673;51.058;3.734;2022-10-17T07:19:55;14.57;;;9.68;;
57842;SDS011;43673;51.058;3.734;2022-10-17T07:22:20;16.75;;;10.85;;
57842;SDS011;43673;51.058;3.734;2022-10-17T07:24:46;17.90;;;9.90;;
57842;SDS011;43673;51.058;3.734;2022-10-17T07:27:12;21.75;;;10.98;;
57842;SDS011;43673;51.058;3.734;2022-10-17T07:29:39;17.08;;;9.80;;
57842;SDS011;43673;51.058;3.734;2022-10-17T07:32:05;16.55;;;10.80;;
57842;SDS011;43673;51.058;3.734;2022-10-17T07:34:35;18.27;;;12.00;;
57842;SDS011;43673;51.058;3.734;2022-10-17T07:37:01;14.07;;;9.30;;
57842;SDS011;43673;51.058;3.734;2022-10-17T07:39:30;12.02;;;9.50;;
57842;SDS011;43673;51.058;3.734;2022-10-17T07:41:56;15.40;;;10.60;;
57842;SDS011;43673;51.058;3.734;2022-10-17T07:44:22;15.73;;;9.32;;
57842;SDS011;43673;51.058;3.734;2022-10-17T07:46:48;17.98;;;12.63;;
57842;SDS011;43673;51.058;3.734;2022-10-17T07:49:14;30.67;;;18.35;;
57842;SDS011;43673;51.058;3.734;2022-10-17T07:51:40;31.10;;;16.67;;
57842;SDS011;43673;51.058;3.734;2022-10-17T07:54:06;13.15;;;9.60;;
57842;SDS011;43673;51.058;3.734;2022-10-17T07:56:32;12.70;;;9.13;;
57842;SDS011;43673;51.058;3.734;2022-10-17T07:58:57;17.73;;;10.77;;
57842;SDS011;43673;51.058;3.734;2022-10-17T08:01:23;15.30;;;10.00;;
57842;SDS011;43673;51.058;3.734;2022-10-17T08:03:50;22.65;;;13.32;;
57842;SDS011;43673;51.058;3.734;2022-10-17T08:06:16;13.13;;;8.63;;
57842;SDS011;43673;51.058;3.734;2022-10-17T08:18:57;21.83;;;12.70;;
57842;SDS011;43673;51.058;3.734;2022-10-17T08:21:23;13.13;;;9.68;;
57842;SDS011;43673;51.058;3.734;2022-10-17T08:23:49;25.60;;;14.18;;
57842;SDS011;43673;51.058;3.734;2022-10-17T08:26:15;26.30;;;12.55;;
57842;SDS011;43673;51.058;3.734;2022-10-17T08:28:41;16.70;;;10.35;;
57842;SDS011;43673;51.058;3.734;2022-10-17T08:31:12;17.92;;;11.15;;
57842;SDS011;43673;51.058;3.734;2022-10-17T08:33:39;14.98;;;9.75;;
57842;SDS011;43673;51.058;3.734;2022-10-17T08:36:06;15.48;;;10.25;;
57842;SDS011;43673;51.058;3.734;2022-10-17T08:38:33;14.88;;;9.15;;
57842;SDS011;43673;51.058;3.734;2022-10-17T08:41:00;12.23;;;9.93;;
57842;SDS011;43673;51.058;3.734;2022-10-17T08:43:33;20.02;;;11.25;;
57842;SDS011;43673;51.058;3.734;2022-10-17T08:46:22;12.10;;;9.38;;
57842;SDS011;43673;51.058;3.734;2022-10-17T08:48:55;21.88;;;18.73;;
57842;SDS011;43673;51.058;3.734;2022-10-17T08:51:24;12.15;;;9.45;;
57842;SDS011;43673;51.058;3.734;2022-10-17T08:56:44;14.02;;;9.60;;
57842;SDS011;43673;51.058;3.734;2022-10-17T08:59:17;16.42;;;9.75;;
57842;SDS011;43673;51.058;3.734;2022-10-17T09:12:02;17.88;;;9.63;;
57842;SDS011;43673;51.058;3.734;2022-10-17T09:22:29;14.02;;;10.18;;
57842;SDS011;43673;51.058;3.734;2022-10-17T09:25:03;14.68;;;10.43;;
57842;SDS011;43673;51.058;3.734;2022-10-17T09:27:35;15.25;;;9.77;;
57842;SDS011;43673;51.058;3.734;2022-10-17T09:32:57;12.57;;;9.98;;
57842;SDS011;43673;51.058;3.734;2022-10-17T09:35:23;13.60;;;9.68;;
57842;SDS011;43673;51.058;3.734;2022-10-17T09:37:51;19.20;;;9.75;;
57842;SDS011;43673;51.058;3.734;2022-10-17T09:40:24;12.10;;;9.48;;
57842;SDS011;43673;51.058;3.734;2022-10-17T09:42:55;15.18;;;9.32;;
57842;SDS011;43673;51.058;3.734;2022-10-17T09:45:23;14.45;;;10.35;;
57842;SDS011;43673;51.058;3.734;2022-10-17T09:50:55;13.13;;;7.68;;
57842;SDS011;43673;51.058;3.734;2022-10-17T09:55:52;11.27;;;7.75;;
57842;SDS011;43673;51.058;3.734;2022-10-17T09:58:21;12.25;;;7.07;;
57842;SDS011;43673;51.058;3.734;2022-10-17T10:00:47;10.93;;;7.55;;
57842;SDS011;43673;51.058;3.734;2022-10-17T10:03:23;25.30;;;22.65;;
57842;SDS011;43673;51.058;3.734;2022-10-17T10:11:24;14.65;;;8.18;;
57842;SDS011;43673;51.058;3.734;2022-10-17T10:14:11;14.48;;;7.70;;
57842;SDS011;43673;51.058;3.734;2022-10-17T10:19:53;9.13;;;7.35;;
57842;SDS011;43673;51.058;3.734;2022-10-17T10:22:19;11.13;;;7.25;;
57842;SDS011;43673;51.058;3.734;2022-10-17T10:27:42;8.70;;;5.97;;
57842;SDS011;43673;51.058;3.734;2022-10-17T10:30:20;10.10;;;6.43;;
57842;SDS011;43673;51.058;3.734;2022-10-17T10:32:52;10.63;;;5.68;;
57842;SDS011;43673;51.058;3.734;2022-10-17T10:35:22;10.68;;;6.20;;
57842;SDS011;43673;51.058;3.734;2022-10-17T10:37:54;10.18;;;5.82;;
57842;SDS011;43673;51.058;3.734;2022-10-17T10:40:32;7.28;;;5.95;;
57842;SDS011;43673;51.058;3.734;2022-10-17T10:43:02;11.93;;;5.97;;
57842;SDS011;43673;51.058;3.734;2022-10-17T10:48:12;10.27;;;6.03;;
57842;SDS011;43673;51.058;3.734;2022-10-17T10:50:48;12.45;;;7.68;;
57842;SDS011;43673;51.058;3.734;2022-10-17T10:56:30;7.88;;;4.20;;
57842;SDS011;43673;51.058;3.734;2022-10-17T10:59:03;5.22;;;3.65;;
57842;SDS011;43673;51.058;3.734;2022-10-17T11:01:53;6.68;;;4.78;;
57842;SDS011;43673;51.058;3.734;2022-10-17T11:07:24;8.63;;;4.15;;
57842;SDS011;43673;51.058;3.734;2022-10-17T11:12:42;7.63;;;4.47;;
57842;SDS011;43673;51.058;3.734;2022-10-17T11:15:34;6.35;;;4.35;;
57842;SDS011;43673;51.058;3.734;2022-10-17T11:23:42;7.68;;;4.60;;
57842;SDS011;43673;51.058;3.734;2022-10-17T11:26:20;7.45;;;4.50;;
57842;SDS011;43673;51.058;3.734;2022-10-17T11:28:54;5.07;;;3.63;;
57842;SDS011;43673;51.058;3.734;2022-10-17T11:31:22;6.32;;;4.28;;
57842;SDS011;43673;51.058;3.734;2022-10-17T11:34:04;7.57;;;4.00;;
57842;SDS011;43673;51.058;3.734;2022-10-17T11:36:46;6.55;;;3.72;;
57842;SDS011;43673;51.058;3.734;2022-10-17T11:39:21;4.63;;;3.85;;
57842;SDS011;43673;51.058;3.734;2022-10-17T11:42:17;5.85;;;4.13;;
57842;SDS011;43673;51.058;3.734;2022-10-17T11:44:49;6.95;;;3.95;;
57842;SDS011;43673;51.058;3.734;2022-10-17T11:50:19;5.63;;;4.50;;
57842;SDS011;43673;51.058;3.734;2022-10-17T11:52:55;5.65;;;4.30;;
57842;SDS011;43673;51.058;3.734;2022-10-17T11:55:29;5.10;;;4.60;;
57842;SDS011;43673;51.058;3.734;2022-10-17T12:04:00;10.23;;;3.88;;
57842;SDS011;43673;51.058;3.734;2022-10-17T12:07:10;6.05;;;4.13;;
57842;SDS011;43673;51.058;3.734;2022-10-17T12:12:25;8.20;;;4.85;;
57842;SDS011;43673;51.058;3.734;2022-10-17T12:14:52;5.25;;;3.83;;
57842;SDS011;43673;51.058;3.734;2022-10-17T12:20:12;6.15;;;3.75;;
57842;SDS011;43673;51.058;3.734;2022-10-17T12:22:47;6.90;;;4.25;;
57842;SDS011;43673;51.058;3.734;2022-10-17T12:25:25;7.05;;;4.22;;
57842;SDS011;43673;51.058;3.734;2022-10-17T12:30:31;8.32;;;4.40;;
57842;SDS011;43673;51.058;3.734;2022-10-17T12:35:51;5.70;;;5.10;;
57842;SDS011;43673;51.058;3.734;2022-10-17T12:54:59;5.90;;;4.22;;
57842;SDS011;43673;51.058;3.734;2022-10-17T12:57:34;5.70;;;4.15;;
57842;SDS011;43673;51.058;3.734;2022-10-17T13:00:21;5.07;;;3.58;;
57842;SDS011;43673;51.058;3.734;2022-10-17T13:05:51;4.47;;;3.47;;
57842;SDS011;43673;51.058;3.734;2022-10-17T13:08:24;7.70;;;3.53;;
57842;SDS011;43673;51.058;3.734;2022-10-17T13:10:58;7.75;;;4.35;;
57842;SDS011;43673;51.058;3.734;2022-10-17T13:13:30;7.13;;;3.65;;
57842;SDS011;43673;51.058;3.734;2022-10-17T13:16:07;8.02;;;3.90;;
57842;SDS011;43673;51.058;3.734;2022-10-17T13:18:33;5.05;;;3.38;;
57842;SDS011;43673;51.058;3.734;2022-10-17T13:23:38;5.43;;;3.30;;
57842;SDS011;43673;51.058;3.734;2022-10-17T13:26:11;5.60;;;3.30;;
57842;SDS011;43673;51.058;3.734;2022-10-17T13:28:40;4.57;;;3.20;;
57842;SDS011;43673;51.058;3.734;2022-10-17T13:31:19;7.85;;;3.75;;
57842;SDS011;43673;51.058;3.734;2022-10-17T13:34:01;9.70;;;4.32;;
57842;SDS011;43673;51.058;3.734;2022-10-17T13:36:49;5.97;;;3.42;;
57842;SDS011;43673;51.058;3.734;2022-10-17T13:39:18;3.35;;;2.65;;
57842;SDS011;43673;51.058;3.734;2022-10-17T13:41:46;5.30;;;3.78;;
57842;SDS011;43673;51.058;3.734;2022-10-17T13:44:20;8.15;;;2.90;;
57842;SDS011;43673;51.058;3.734;2022-10-17T13:46:48;5.47;;;2.92;;
57842;SDS011;43673;51.058;3.734;2022-10-17T13:49:22;6.82;;;3.30;;
57842;SDS011;43673;51.058;3.734;2022-10-17T13:52:05;6.32;;;3.00;;
57842;SDS011;43673;51.058;3.734;2022-10-17T13:54:42;4.47;;;3.33;;
57842;SDS011;43673;51.058;3.734;2022-10-17T13:57:23;4.30;;;2.88;;
57842;SDS011;43673;51.058;3.734;2022-10-17T13:59:56;4.13;;;3.30;;
57842;SDS011;43673;51.058;3.734;2022-10-17T14:02:25;3.45;;;2.90;;
57842;SDS011;43673;51.058;3.734;2022-10-17T14:05:02;5.72;;;2.72;;
57842;SDS011;43673;51.058;3.734;2022-10-17T14:12:45;5.28;;;3.65;;
57842;SDS011;43673;51.058;3.734;2022-10-17T14:15:14;5.43;;;2.88;;
57842;SDS011;43673;51.058;3.734;2022-10-17T14:17:40;7.70;;;3.55;;
57842;SDS011;43673;51.058;3.734;2022-10-17T14:20:15;5.72;;;3.10;;
57842;SDS011;43673;51.058;3.734;2022-10-17T14:22:42;5.68;;;3.08;;
57842;SDS011;43673;51.058;3.734;2022-10-17T14:28:01;7.45;;;3.20;;
57842;SDS011;43673;51.058;3.734;2022-10-17T14:30:39;5.65;;;2.90;;
57842;SDS011;43673;51.058;3.734;2022-10-17T14:33:18;3.60;;;2.85;;
57842;SDS011;43673;51.058;3.734;2022-10-17T14:35:54;5.38;;;3.17;;
57842;SDS011;43673;51.058;3.734;2022-10-17T14:38:22;5.78;;;3.00;;
57842;SDS011;43673;51.058;3.734;2022-10-17T14:40:52;4.80;;;3.00;;
57842;SDS011;43673;51.058;3.734;2022-10-17T14:43:24;6.43;;;3.35;;
57842;SDS011;43673;51.058;3.734;2022-10-17T14:45:52;5.28;;;3.55;;
57842;SDS011;43673;51.058;3.734;2022-10-17T14:56:20;6.25;;;2.92;;
57842;SDS011;43673;51.058;3.734;2022-10-17T14:58:51;6.28;;;3.28;;
57842;SDS011;43673;51.058;3.734;2022-10-17T15:01:17;4.82;;;3.15;;
57842;SDS011;43673;51.058;3.734;2022-10-17T15:03:43;7.80;;;4.03;;
57842;SDS011;43673;51.058;3.734;2022-10-17T15:06:22;4.38;;;3.45;;
57842;SDS011;43673;51.058;3.734;2022-10-17T15:08:51;4.47;;;3.22;;
57842;SDS011;43673;51.058;3.734;2022-10-17T15:11:17;7.45;;;3.75;;
57842;SDS011;43673;51.058;3.734;2022-10-17T15:13:43;9.98;;;3.42;;
57842;SDS011;43673;51.058;3.734;2022-10-17T15:16:12;7.70;;;3.70;;
57842;SDS011;43673;51.058;3.734;2022-10-17T15:18:47;7.25;;;3.88;;
57842;SDS011;43673;51.058;3.734;2022-10-17T15:21:14;8.13;;;4.18;;
57842;SDS011;43673;51.058;3.734;2022-10-17T15:23:41;4.90;;;3.08;;
57842;SDS011;43673;51.058;3.734;2022-10-17T15:26:22;9.13;;;4.13;;
57842;SDS011;43673;51.058;3.734;2022-10-17T15:28:50;5.25;;;3.63;;
57842;SDS011;43673;51.058;3.734;2022-10-17T15:31:20;10.43;;;4.35;;
57842;SDS011;43673;51.058;3.734;2022-10-17T15:33:47;10.75;;;4.47;;
57842;SDS011;43673;51.058;3.734;2022-10-17T15:38:48;11.27;;;4.45;;
57842;SDS011;43673;51.058;3.734;2022-10-17T15:41:16;9.10;;;3.88;;
57842;SDS011;43673;51.058;3.734;2022-10-17T15:43:41;8.63;;;4.72;;
57842;SDS011;43673;51.058;3.734;2022-10-17T15:46:11;4.82;;;3.83;;
57842;SDS011;43673;51.058;3.734;2022-10-17T15:48:38;7.45;;;3.95;;
57842;SDS011;43673;51.058;3.734;2022-10-17T15:51:04;5.82;;;4.10;;
57842;SDS011;43673;51.058;3.734;2022-10-17T15:53:30;7.15;;;3.88;;
57842;SDS011;43673;51.058;3.734;2022-10-17T15:55:56;7.43;;;4.68;;
57842;SDS011;43673;51.058;3.734;2022-10-17T15:58:23;13.23;;;5.18;;
57842;SDS011;43673;51.058;3.734;2022-10-17T16:00:48;6.93;;;4.00;;
57842;SDS011;43673;51.058;3.734;2022-10-17T16:03:14;5.22;;;4.00;;
57842;SDS011;43673;51.058;3.734;2022-10-17T16:05:40;7.70;;;3.90;;
57842;SDS011;43673;51.058;3.734;2022-10-17T16:08:05;8.18;;;4.80;;
57842;SDS011;43673;51.058;3.734;2022-10-17T16:10:31;4.80;;;4.25;;
57842;SDS011;43673;51.058;3.734;2022-10-17T16:12:58;8.05;;;4.35;;
57842;SDS011;43673;51.058;3.734;2022-10-17T16:15:24;10.05;;;5.10;;
57842;SDS011;43673;51.058;3.734;2022-10-17T16:17:53;10.63;;;4.55;;
57842;SDS011;43673;51.058;3.734;2022-10-17T16:22:48;13.43;;;5.07;;
57842;SDS011;43673;51.058;3.734;2022-10-17T16:27:52;9.02;;;4.45;;
57842;SDS011;43673;51.058;3.734;2022-10-17T16:30:18;6.72;;;4.63;;
57842;SDS011;43673;51.058;3.734;2022-10-17T16:32:45;8.30;;;4.90;;
57842;SDS011;43673;51.058;3.734;2022-10-17T16:35:21;13.68;;;5.07;;
57842;SDS011;43673;51.058;3.734;2022-10-17T16:37:50;5.50;;;4.83;;
57842;SDS011;43673;51.058;3.734;2022-10-17T16:40:16;10.68;;;4.88;;
57842;SDS011;43673;51.058;3.734;2022-10-17T16:42:42;7.45;;;4.65;;
57842;SDS011;43673;51.058;3.734;2022-10-17T16:45:09;10.70;;;5.38;;
57842;SDS011;43673;51.058;3.734;2022-10-17T16:47:43;8.77;;;4.35;;
57842;SDS011;43673;51.058;3.734;2022-10-17T16:50:09;8.80;;;4.85;;
57842;SDS011;43673;51.058;3.734;2022-10-17T16:52:35;10.68;;;4.90;;
57842;SDS011;43673;51.058;3.734;2022-10-17T16:55:01;6.97;;;5.15;;
57842;SDS011;43673;51.058;3.734;2022-10-17T16:57:26;7.05;;;4.70;;
57842;SDS011;43673;51.058;3.734;2022-10-17T16:59:52;7.38;;;4.88;;
57842;SDS011;43673;51.058;3.734;2022-10-17T17:02:18;11.52;;;4.43;;
57842;SDS011;43673;51.058;3.734;2022-10-17T17:04:43;8.48;;;4.80;;
57842;SDS011;43673;51.058;3.734;2022-10-17T17:07:09;7.53;;;4.95;;
57842;SDS011;43673;51.058;3.734;2022-10-17T17:09:35;9.27;;;6.03;;
57842;SDS011;43673;51.058;3.734;2022-10-17T17:12:00;9.40;;;6.00;;
57842;SDS011;43673;51.058;3.734;2022-10-17T17:14:26;6.50;;;4.75;;
57842;SDS011;43673;51.058;3.734;2022-10-17T17:16:52;6.78;;;4.68;;
57842;SDS011;43673;51.058;3.734;2022-10-17T17:19:18;13.43;;;6.22;;
57842;SDS011;43673;51.058;3.734;2022-10-17T17:21:44;10.70;;;5.72;;
57842;SDS011;43673;51.058;3.734;2022-10-17T17:24:15;8.75;;;5.53;;
57842;SDS011;43673;51.058;3.734;2022-10-17T17:26:42;11.73;;;5.40;;
57842;SDS011;43673;51.058;3.734;2022-10-17T17:29:08;8.10;;;5.70;;
57842;SDS011;43673;51.058;3.734;2022-10-17T17:31:36;8.88;;;6.63;;
57842;SDS011;43673;51.058;3.734;2022-10-17T17:34:03;14.02;;;6.65;;
57842;SDS011;43673;51.058;3.734;2022-10-17T17:36:30;12.90;;;7.43;;
57842;SDS011;43673;51.058;3.734;2022-10-17T17:38:58;11.50;;;8.43;;
57842;SDS011;43673;51.058;3.734;2022-10-17T17:41:25;13.43;;;8.98;;
57842;SDS011;43673;51.058;3.734;2022-10-17T17:43:51;17.42;;;9.30;;
57842;SDS011;43673;51.058;3.734;2022-10-17T17:46:18;15.07;;;8.60;;
57842;SDS011;43673;51.058;3.734;2022-10-17T17:48:45;14.38;;;9.23;;
57842;SDS011;43673;51.058;3.734;2022-10-17T17:51:13;15.07;;;8.60;;
57842;SDS011;43673;51.058;3.734;2022-10-17T17:53:41;13.40;;;9.73;;
57842;SDS011;43673;51.058;3.734;2022-10-17T17:56:08;15.70;;;9.25;;
57842;SDS011;43673;51.058;3.734;2022-10-17T17:58:38;18.48;;;10.50;;
57842;SDS011;43673;51.058;3.734;2022-10-17T18:01:07;15.35;;;8.75;;
57842;SDS011;43673;51.058;3.734;2022-10-17T18:03:36;14.90;;;8.73;;
57842;SDS011;43673;51.058;3.734;2022-10-17T18:06:04;15.57;;;8.27;;
57842;SDS011;43673;51.058;3.734;2022-10-17T18:08:32;16.52;;;9.27;;
57842;SDS011;43673;51.058;3.734;2022-10-17T18:10:58;14.98;;;9.45;;
57842;SDS011;43673;51.058;3.734;2022-10-17T18:13:24;12.63;;;8.60;;
57842;SDS011;43673;51.058;3.734;2022-10-17T18:15:50;17.05;;;9.70;;
57842;SDS011;43673;51.058;3.734;2022-10-17T18:18:24;14.40;;;9.90;;
57842;SDS011;43673;51.058;3.734;2022-10-17T18:20:51;11.60;;;9.18;;
57842;SDS011;43673;51.058;3.734;2022-10-17T18:23:18;17.10;;;8.88;;
57842;SDS011;43673;51.058;3.734;2022-10-17T18:25:55;12.02;;;8.95;;
57842;SDS011;43673;51.058;3.734;2022-10-17T18:28:25;14.90;;;9.73;;
57842;SDS011;43673;51.058;3.734;2022-10-17T18:30:51;16.00;;;9.27;;
57842;SDS011;43673;51.058;3.734;2022-10-17T18:33:17;15.45;;;9.13;;
57842;SDS011;43673;51.058;3.734;2022-10-17T18:35:42;11.05;;;9.20;;
57842;SDS011;43673;51.058;3.734;2022-10-17T18:38:08;12.43;;;9.02;;
57842;SDS011;43673;51.058;3.734;2022-10-17T18:40:34;13.93;;;9.98;;
57842;SDS011;43673;51.058;3.734;2022-10-17T18:43:00;13.63;;;9.18;;
57842;SDS011;43673;51.058;3.734;2022-10-17T18:45:26;15.57;;;9.43;;
57842;SDS011;43673;51.058;3.734;2022-10-17T18:47:51;12.95;;;9.50;;
57842;SDS011;43673;51.058;3.734;2022-10-17T18:50:22;17.40;;;10.60;;
57842;SDS011;43673;51.058;3.734;2022-10-17T18:52:49;14.05;;;10.23;;
57842;SDS011;43673;51.058;3.734;2022-10-17T18:55:16;13.68;;;11.23;;
57842;SDS011;43673;51.058;3.734;2022-10-17T18:57:47;15.27;;;11.05;;
57842;SDS011;43673;51.058;3.734;2022-10-17T19:00:14;19.10;;;11.10;;
57842;SDS011;43673;51.058;3.734;2022-10-17T19:02:40;14.43;;;11.40;;
57842;SDS011;43673;51.058;3.734;2022-10-17T19:05:06;15.65;;;11.60;;
57842;SDS011;43673;51.058;3.734;2022-10-17T19:07:32;17.95;;;12.50;;
57842;SDS011;43673;51.058;3.734;2022-10-17T19:09:58;14.93;;;11.13;;
57842;SDS011;43673;51.058;3.734;2022-10-17T19:12:24;16.85;;;11.23;;
57842;SDS011;43673;51.058;3.734;2022-10-17T19:14:50;17.02;;;11.70;;
57842;SDS011;43673;51.058;3.734;2022-10-17T19:17:17;18.05;;;11.07;;
57842;SDS011;43673;51.058;3.734;2022-10-17T19:19:43;14.80;;;11.32;;
57842;SDS011;43673;51.058;3.734;2022-10-17T19:22:09;18.35;;;12.63;;
57842;SDS011;43673;51.058;3.734;2022-10-17T19:24:35;14.70;;;11.38;;
57842;SDS011;43673;51.058;3.734;2022-10-17T19:27:01;17.42;;;12.48;;
57842;SDS011;43673;51.058;3.734;2022-10-17T19:29:28;16.65;;;12.30;;
57842;SDS011;43673;51.058;3.734;2022-10-17T19:31:57;19.33;;;12.45;;
57842;SDS011;43673;51.058;3.734;2022-10-17T19:34:23;16.98;;;13.80;;
57842;SDS011;43673;51.058;3.734;2022-10-17T19:36:49;17.23;;;13.20;;
57842;SDS011;43673;51.058;3.734;2022-10-17T19:39:16;19.77;;;13.45;;
57842;SDS011;43673;51.058;3.734;2022-10-17T19:41:44;18.98;;;13.38;;
57842;SDS011;43673;51.058;3.734;2022-10-17T19:44:11;21.02;;;13.57;;
57842;SDS011;43673;51.058;3.734;2022-10-17T19:46:37;22.52;;;14.70;;
57842;SDS011;43673;51.058;3.734;2022-10-17T19:49:04;17.45;;;14.07;;
57842;SDS011;43673;51.058;3.734;2022-10-17T19:51:30;19.27;;;15.93;;
57842;SDS011;43673;51.058;3.734;2022-10-17T19:53:58;20.02;;;14.35;;
57842;SDS011;43673;51.058;3.734;2022-10-17T19:56:25;21.77;;;14.65;;
57842;SDS011;43673;51.058;3.734;2022-10-17T19:58:52;21.30;;;15.15;;
57842;SDS011;43673;51.058;3.734;2022-10-17T20:01:20;18.88;;;14.30;;
57842;SDS011;43673;51.058;3.734;2022-10-17T20:03:49;16.42;;;14.63;;
57842;SDS011;43673;51.058;3.734;2022-10-17T20:06:15;20.48;;;15.52;;
57842;SDS011;43673;51.058;3.734;2022-10-17T20:08:42;22.45;;;15.05;;
57842;SDS011;43673;51.058;3.734;2022-10-17T20:11:09;19.10;;;15.27;;
57842;SDS011;43673;51.058;3.734;2022-10-17T20:13:37;21.30;;;15.13;;
57842;SDS011;43673;51.058;3.734;2022-10-17T20:16:05;19.08;;;15.52;;
57842;SDS011;43673;51.058;3.734;2022-10-17T20:18:31;25.58;;;16.55;;
57842;SDS011;43673;51.058;3.734;2022-10-17T20:21:02;23.17;;;17.42;;
57842;SDS011;43673;51.058;3.734;2022-10-17T20:23:29;17.63;;;15.15;;
57842;SDS011;43673;51.058;3.734;2022-10-17T20:26:03;21.00;;;15.05;;
57842;SDS011;43673;51.058;3.734;2022-10-17T20:28:30;23.08;;;15.75;;
57842;SDS011;43673;51.058;3.734;2022-10-17T20:30:56;22.30;;;15.00;;
57842;SDS011;43673;51.058;3.734;2022-10-17T20:33:22;25.95;;;16.55;;
57842;SDS011;43673;51.058;3.734;2022-10-17T20:35:48;22.58;;;15.55;;
57842;SDS011;43673;51.058;3.734;2022-10-17T20:38:14;21.92;;;15.57;;
57842;SDS011;43673;51.058;3.734;2022-10-17T20:40:41;24.63;;;16.90;;
57842;SDS011;43673;51.058;3.734;2022-10-17T20:43:07;20.85;;;15.80;;
57842;SDS011;43673;51.058;3.734;2022-10-17T20:45:37;19.05;;;16.38;;
57842;SDS011;43673;51.058;3.734;2022-10-17T20:48:04;23.25;;;17.60;;
57842;SDS011;43673;51.058;3.734;2022-10-17T20:50:31;28.60;;;18.67;;